sensor_id;sensor_type;location;lat;lon;timestamp;temperature;humidity
3923;DHT22;1976;51.694;6.256;2023-02-28T00:00:25;1.30;99.90
3923;DHT22;1976;51.694;6.256;2023-02-28T00:02:51;1.30;99.90
3923;DHT22;1976;51.694;6.256;2023-02-28T00:05:19;1.30;99.90
3923;DHT22;1976;51.694;6.256;2023-02-28T00:07:45;1.30;99.90
3923;DHT22;1976;51.694;6.256;2023-02-28T00:10:14;1.30;99.90
3923;DHT22;1976;51.694;6.256;2023-02-28T00:12:40;1.30;99.90
3923;DHT22;1976;51.694;6.256;2023-02-28T00:15:08;1.20;99.90
3923;DHT22;1976;51.694;6.256;2023-02-28T00:17:34;1.30;99.90
3923;DHT22;1976;51.694;6.256;2023-02-28T00:20:00;1.20;99.90
3923;DHT22;1976;51.694;6.256;2023-02-28T00:22:39;1.20;99.90
3923;DHT22;1976;51.694;6.256;2023-02-28T00:25:06;1.20;99.90
3923;DHT22;1976;51.694;6.256;2023-02-28T00:27:36;1.10;99.90
3923;DHT22;1976;51.694;6.256;2023-02-28T00:30:02;1.10;99.90
3923;DHT22;1976;51.694;6.256;2023-02-28T00:32:28;1.10;99.90
3923;DHT22;1976;51.694;6.256;2023-02-28T00:34:53;1.10;99.90
3923;DHT22;1976;51.694;6.256;2023-02-28T00:37:19;1.10;99.90
3923;DHT22;1976;51.694;6.256;2023-02-28T00:39:45;1.10;99.90
3923;DHT22;1976;51.694;6.256;2023-02-28T00:42:10;1.10;99.90
3923;DHT22;1976;51.694;6.256;2023-02-28T00:44:36;1.00;99.90
3923;DHT22;1976;51.694;6.256;2023-02-28T00:47:02;0.90;99.90
3923;DHT22;1976;51.694;6.256;2023-02-28T00:49:27;0.90;99.90
3923;DHT22;1976;51.694;6.256;2023-02-28T00:51:54;0.80;99.90
3923;DHT22;1976;51.694;6.256;2023-02-28T00:54:21;0.80;99.90
3923;DHT22;1976;51.694;6.256;2023-02-28T00:56:47;0.80;99.90
3923;DHT22;1976;51.694;6.256;2023-02-28T00:59:15;0.80;99.90
3923;DHT22;1976;51.694;6.256;2023-02-28T01:01:42;0.80;99.90
3923;DHT22;1976;51.694;6.256;2023-02-28T01:04:08;0.80;99.90
3923;DHT22;1976;51.694;6.256;2023-02-28T01:06:34;0.80;99.90
3923;DHT22;1976;51.694;6.256;2023-02-28T01:09:00;0.70;99.90
3923;DHT22;1976;51.694;6.256;2023-02-28T01:11:25;0.70;99.90
3923;DHT22;1976;51.694;6.256;2023-02-28T01:13:51;0.70;99.90
3923;DHT22;1976;51.694;6.256;2023-02-28T01:16:17;0.70;99.90
3923;DHT22;1976;51.694;6.256;2023-02-28T01:18:43;0.70;99.90
3923;DHT22;1976;51.694;6.256;2023-02-28T01:21:15;0.70;99.90
3923;DHT22;1976;51.694;6.256;2023-02-28T01:23:41;0.70;99.90
3923;DHT22;1976;51.694;6.256;2023-02-28T01:26:15;0.70;99.90
3923;DHT22;1976;51.694;6.256;2023-02-28T01:28:42;0.80;99.90
3923;DHT22;1976;51.694;6.256;2023-02-28T01:31:08;0.90;99.90
3923;DHT22;1976;51.694;6.256;2023-02-28T01:33:34;1.00;99.90
3923;DHT22;1976;51.694;6.256;2023-02-28T01:36:02;1.10;99.90
3923;DHT22;1976;51.694;6.256;2023-02-28T01:38:28;1.20;99.90
3923;DHT22;1976;51.694;6.256;2023-02-28T01:40:54;1.20;99.90
3923;DHT22;1976;51.694;6.256;2023-02-28T01:43:26;1.30;99.90
3923;DHT22;1976;51.694;6.256;2023-02-28T01:45:54;1.40;99.90
3923;DHT22;1976;51.694;6.256;2023-02-28T01:48:26;1.40;99.90
3923;DHT22;1976;51.694;6.256;2023-02-28T01:50:55;1.50;99.90
3923;DHT22;1976;51.694;6.256;2023-02-28T01:53:25;1.60;99.90
3923;DHT22;1976;51.694;6.256;2023-02-28T01:55:53;1.70;99.90
3923;DHT22;1976;51.694;6.256;2023-02-28T01:58:20;1.70;99.90
3923;DHT22;1976;51.694;6.256;2023-02-28T02:00:45;1.80;99.90
3923;DHT22;1976;51.694;6.256;2023-02-28T02:03:16;1.90;99.90
3923;DHT22;1976;51.694;6.256;2023-02-28T02:05:47;1.80;99.90
3923;DHT22;1976;51.694;6.256;2023-02-28T02:08:24;1.90;99.90
3923;DHT22;1976;51.694;6.256;2023-02-28T02:10:56;1.80;99.90
3923;DHT22;1976;51.694;6.256;2023-02-28T02:13:45;1.80;99.90
3923;DHT22;1976;51.694;6.256;2023-02-28T02:18:57;1.80;99.90
3923;DHT22;1976;51.694;6.256;2023-02-28T02:38:18;1.60;99.90
3923;DHT22;1976;51.694;6.256;2023-02-28T02:41:14;1.70;99.90
3923;DHT22;1976;51.694;6.256;2023-02-28T02:43:50;1.80;99.90
3923;DHT22;1976;51.694;6.256;2023-02-28T02:46:29;1.80;99.90
3923;DHT22;1976;51.694;6.256;2023-02-28T02:49:00;1.80;99.90
3923;DHT22;1976;51.694;6.256;2023-02-28T02:51:27;1.90;99.90
3923;DHT22;1976;51.694;6.256;2023-02-28T02:54:04;1.90;99.90
3923;DHT22;1976;51.694;6.256;2023-02-28T02:56:32;2.00;99.90
3923;DHT22;1976;51.694;6.256;2023-02-28T02:59:04;1.90;99.90
3923;DHT22;1976;51.694;6.256;2023-02-28T03:01:32;2.00;99.90
3923;DHT22;1976;51.694;6.256;2023-02-28T03:04:02;2.00;99.90
3923;DHT22;1976;51.694;6.256;2023-02-28T03:06:28;2.10;99.90
3923;DHT22;1976;51.694;6.256;2023-02-28T03:08:54;2.10;99.90
3923;DHT22;1976;51.694;6.256;2023-02-28T03:11:20;2.10;99.90
3923;DHT22;1976;51.694;6.256;2023-02-28T03:16:56;2.20;99.90
3923;DHT22;1976;51.694;6.256;2023-02-28T03:19:37;2.20;99.90
3923;DHT22;1976;51.694;6.256;2023-02-28T03:33:41;2.00;99.90
3923;DHT22;1976;51.694;6.256;2023-02-28T03:36:14;2.00;99.90
3923;DHT22;1976;51.694;6.256;2023-02-28T03:38:55;2.00;99.90
3923;DHT22;1976;51.694;6.256;2023-02-28T03:41:32;2.10;99.90
3923;DHT22;1976;51.694;6.256;2023-02-28T03:44:15;2.10;99.90
3923;DHT22;1976;51.694;6.256;2023-02-28T03:46:49;2.20;99.90
3923;DHT22;1976;51.694;6.256;2023-02-28T03:49:32;2.10;99.90
3923;DHT22;1976;51.694;6.256;2023-02-28T03:52:03;2.20;99.90
3923;DHT22;1976;51.694;6.256;2023-02-28T03:54:32;2.20;99.90
3923;DHT22;1976;51.694;6.256;2023-02-28T04:00:05;2.30;99.90
3923;DHT22;1976;51.694;6.256;2023-02-28T04:02:32;2.30;99.90
3923;DHT22;1976;51.694;6.256;2023-02-28T04:04:59;2.30;99.90
3923;DHT22;1976;51.694;6.256;2023-02-28T04:07:25;2.30;99.90
3923;DHT22;1976;51.694;6.256;2023-02-28T04:09:54;2.30;99.90
3923;DHT22;1976;51.694;6.256;2023-02-28T04:12:19;2.40;99.90
3923;DHT22;1976;51.694;6.256;2023-02-28T04:14:46;2.30;99.90
3923;DHT22;1976;51.694;6.256;2023-02-28T04:17:12;2.30;99.90
3923;DHT22;1976;51.694;6.256;2023-02-28T04:19:37;2.30;99.90
3923;DHT22;1976;51.694;6.256;2023-02-28T04:22:03;2.30;99.90
3923;DHT22;1976;51.694;6.256;2023-02-28T04:24:28;2.30;99.90
3923;DHT22;1976;51.694;6.256;2023-02-28T04:26:56;2.20;99.90
3923;DHT22;1976;51.694;6.256;2023-02-28T04:29:28;2.20;99.90
3923;DHT22;1976;51.694;6.256;2023-02-28T04:31:55;2.10;99.90
3923;DHT22;1976;51.694;6.256;2023-02-28T04:34:23;2.10;99.90
3923;DHT22;1976;51.694;6.256;2023-02-28T04:36:49;2.00;99.90
3923;DHT22;1976;51.694;6.256;2023-02-28T04:39:19;1.90;99.90
3923;DHT22;1976;51.694;6.256;2023-02-28T04:41:45;1.80;99.90
3923;DHT22;1976;51.694;6.256;2023-02-28T04:44:11;1.80;99.90
3923;DHT22;1976;51.694;6.256;2023-02-28T04:46:36;1.80;99.90
3923;DHT22;1976;51.694;6.256;2023-02-28T04:49:02;1.80;99.90
3923;DHT22;1976;51.694;6.256;2023-02-28T04:51:28;1.90;99.90
3923;DHT22;1976;51.694;6.256;2023-02-28T04:53:54;1.80;99.90
3923;DHT22;1976;51.694;6.256;2023-02-28T04:56:20;1.80;99.90
3923;DHT22;1976;51.694;6.256;2023-02-28T04:58:46;1.80;99.90
3923;DHT22;1976;51.694;6.256;2023-02-28T05:01:27;1.80;99.90
3923;DHT22;1976;51.694;6.256;2023-02-28T05:03:54;1.80;99.90
3923;DHT22;1976;51.694;6.256;2023-02-28T05:06:22;1.80;99.90
3923;DHT22;1976;51.694;6.256;2023-02-28T05:08:49;1.70;99.90
3923;DHT22;1976;51.694;6.256;2023-02-28T05:11:19;1.70;99.90
3923;DHT22;1976;51.694;6.256;2023-02-28T05:13:46;1.60;99.90
3923;DHT22;1976;51.694;6.256;2023-02-28T05:16:12;1.60;99.90
3923;DHT22;1976;51.694;6.256;2023-02-28T05:18:38;1.60;99.90
3923;DHT22;1976;51.694;6.256;2023-02-28T05:21:04;1.60;99.90
3923;DHT22;1976;51.694;6.256;2023-02-28T05:23:30;1.60;99.90
3923;DHT22;1976;51.694;6.256;2023-02-28T05:25:56;1.50;99.90
3923;DHT22;1976;51.694;6.256;2023-02-28T05:28:22;1.50;99.90
3923;DHT22;1976;51.694;6.256;2023-02-28T05:30:48;1.40;99.90
3923;DHT22;1976;51.694;6.256;2023-02-28T05:33:13;1.30;99.90
3923;DHT22;1976;51.694;6.256;2023-02-28T05:35:40;1.30;99.90
3923;DHT22;1976;51.694;6.256;2023-02-28T05:38:06;1.30;99.90
3923;DHT22;1976;51.694;6.256;2023-02-28T05:40:32;1.20;99.90
3923;DHT22;1976;51.694;6.256;2023-02-28T05:42:58;1.10;99.90
3923;DHT22;1976;51.694;6.256;2023-02-28T05:45:23;1.10;99.90
3923;DHT22;1976;51.694;6.256;2023-02-28T05:47:49;1.00;99.90
3923;DHT22;1976;51.694;6.256;2023-02-28T05:50:18;1.00;99.90
3923;DHT22;1976;51.694;6.256;2023-02-28T05:52:43;0.90;99.90
3923;DHT22;1976;51.694;6.256;2023-02-28T05:55:09;0.90;99.90
3923;DHT22;1976;51.694;6.256;2023-02-28T05:57:35;0.70;99.90
3923;DHT22;1976;51.694;6.256;2023-02-28T06:00:00;0.70;99.90
3923;DHT22;1976;51.694;6.256;2023-02-28T06:02:26;0.60;99.90
3923;DHT22;1976;51.694;6.256;2023-02-28T06:04:52;0.50;99.90
3923;DHT22;1976;51.694;6.256;2023-02-28T06:07:17;0.50;99.90
3923;DHT22;1976;51.694;6.256;2023-02-28T06:09:43;0.40;99.90
3923;DHT22;1976;51.694;6.256;2023-02-28T06:12:10;0.30;99.90
3923;DHT22;1976;51.694;6.256;2023-02-28T06:14:36;0.30;99.90
3923;DHT22;1976;51.694;6.256;2023-02-28T06:17:02;0.20;99.90
3923;DHT22;1976;51.694;6.256;2023-02-28T06:19:28;0.10;99.90
3923;DHT22;1976;51.694;6.256;2023-02-28T06:21:56;0.10;99.90
3923;DHT22;1976;51.694;6.256;2023-02-28T06:24:23;0.10;99.90
3923;DHT22;1976;51.694;6.256;2023-02-28T06:26:49;0.00;99.90
3923;DHT22;1976;51.694;6.256;2023-02-28T06:29:15;0.00;99.90
3923;DHT22;1976;51.694;6.256;2023-02-28T06:31:45;0.00;99.90
3923;DHT22;1976;51.694;6.256;2023-02-28T06:34:12;0.00;99.90
3923;DHT22;1976;51.694;6.256;2023-02-28T06:36:39;0.00;99.90
3923;DHT22;1976;51.694;6.256;2023-02-28T06:39:05;-0.10;99.90
3923;DHT22;1976;51.694;6.256;2023-02-28T06:41:31;-0.10;99.90
3923;DHT22;1976;51.694;6.256;2023-02-28T06:43:56;-0.10;99.90
3923;DHT22;1976;51.694;6.256;2023-02-28T06:46:22;-0.10;99.90
3923;DHT22;1976;51.694;6.256;2023-02-28T06:48:48;-0.10;99.90
3923;DHT22;1976;51.694;6.256;2023-02-28T06:51:19;0.00;99.90
3923;DHT22;1976;51.694;6.256;2023-02-28T06:53:48;0.00;99.90
3923;DHT22;1976;51.694;6.256;2023-02-28T06:56:15;0.00;99.90
3923;DHT22;1976;51.694;6.256;2023-02-28T06:58:41;0.10;99.90
3923;DHT22;1976;51.694;6.256;2023-02-28T07:01:08;0.10;99.90
3923;DHT22;1976;51.694;6.256;2023-02-28T07:03:35;0.10;99.90
3923;DHT22;1976;51.694;6.256;2023-02-28T07:06:01;0.20;99.90
3923;DHT22;1976;51.694;6.256;2023-02-28T07:08:28;0.30;99.90
3923;DHT22;1976;51.694;6.256;2023-02-28T07:10:54;0.20;99.90
3923;DHT22;1976;51.694;6.256;2023-02-28T07:13:20;0.30;99.90
3923;DHT22;1976;51.694;6.256;2023-02-28T07:16:08;0.40;99.90
3923;DHT22;1976;51.694;6.256;2023-02-28T07:18:35;0.40;99.90
3923;DHT22;1976;51.694;6.256;2023-02-28T07:21:06;0.50;99.90
3923;DHT22;1976;51.694;6.256;2023-02-28T07:23:32;0.60;99.90
3923;DHT22;1976;51.694;6.256;2023-02-28T07:25:58;0.70;99.90
3923;DHT22;1976;51.694;6.256;2023-02-28T07:28:24;0.80;99.90
3923;DHT22;1976;51.694;6.256;2023-02-28T07:30:50;0.80;99.90
3923;DHT22;1976;51.694;6.256;2023-02-28T07:33:16;0.90;99.90
3923;DHT22;1976;51.694;6.256;2023-02-28T07:35:42;1.00;99.90
3923;DHT22;1976;51.694;6.256;2023-02-28T07:38:08;1.00;99.90
3923;DHT22;1976;51.694;6.256;2023-02-28T07:40:35;1.10;99.90
3923;DHT22;1976;51.694;6.256;2023-02-28T07:43:02;1.20;99.90
3923;DHT22;1976;51.694;6.256;2023-02-28T07:45:29;1.30;99.90
3923;DHT22;1976;51.694;6.256;2023-02-28T07:47:55;1.40;99.90
3923;DHT22;1976;51.694;6.256;2023-02-28T07:50:21;1.50;99.90
3923;DHT22;1976;51.694;6.256;2023-02-28T07:52:47;1.60;99.90
3923;DHT22;1976;51.694;6.256;2023-02-28T07:55:13;1.70;99.90
3923;DHT22;1976;51.694;6.256;2023-02-28T07:57:39;1.90;99.90
3923;DHT22;1976;51.694;6.256;2023-02-28T08:00:08;2.10;99.90
3923;DHT22;1976;51.694;6.256;2023-02-28T08:02:35;2.70;99.90
3923;DHT22;1976;51.694;6.256;2023-02-28T08:05:01;2.70;99.90
3923;DHT22;1976;51.694;6.256;2023-02-28T08:07:26;3.10;99.90
3923;DHT22;1976;51.694;6.256;2023-02-28T08:09:52;3.40;99.90
3923;DHT22;1976;51.694;6.256;2023-02-28T08:12:17;3.70;99.90
3923;DHT22;1976;51.694;6.256;2023-02-28T08:14:43;4.00;99.70
3923;DHT22;1976;51.694;6.256;2023-02-28T08:17:10;4.20;98.90
3923;DHT22;1976;51.694;6.256;2023-02-28T08:19:36;4.30;98.20
3923;DHT22;1976;51.694;6.256;2023-02-28T08:22:02;4.60;97.40
3923;DHT22;1976;51.694;6.256;2023-02-28T08:24:28;4.90;96.80
3923;DHT22;1976;51.694;6.256;2023-02-28T08:26:55;5.40;95.70
3923;DHT22;1976;51.694;6.256;2023-02-28T08:29:21;5.80;95.00
3923;DHT22;1976;51.694;6.256;2023-02-28T08:31:47;6.20;93.60
3923;DHT22;1976;51.694;6.256;2023-02-28T08:34:15;6.80;92.90
3923;DHT22;1976;51.694;6.256;2023-02-28T08:36:41;7.50;91.70
3923;DHT22;1976;51.694;6.256;2023-02-28T08:39:09;8.10;90.40
3923;DHT22;1976;51.694;6.256;2023-02-28T08:41:35;8.60;88.70
3923;DHT22;1976;51.694;6.256;2023-02-28T08:44:01;8.90;85.90
3923;DHT22;1976;51.694;6.256;2023-02-28T08:46:27;9.30;84.10
3923;DHT22;1976;51.694;6.256;2023-02-28T08:48:54;9.90;82.40
3923;DHT22;1976;51.694;6.256;2023-02-28T08:51:20;10.40;78.80
3923;DHT22;1976;51.694;6.256;2023-02-28T08:53:54;11.00;77.20
3923;DHT22;1976;51.694;6.256;2023-02-28T08:56:20;11.50;74.90
3923;DHT22;1976;51.694;6.256;2023-02-28T08:58:48;12.00;72.60
3923;DHT22;1976;51.694;6.256;2023-02-28T09:01:18;12.30;70.60
3923;DHT22;1976;51.694;6.256;2023-02-28T09:03:46;12.60;70.00
3923;DHT22;1976;51.694;6.256;2023-02-28T09:06:12;12.80;67.80
3923;DHT22;1976;51.694;6.256;2023-02-28T09:08:39;13.00;66.80
3923;DHT22;1976;51.694;6.256;2023-02-28T09:11:05;13.30;66.10
3923;DHT22;1976;51.694;6.256;2023-02-28T09:13:31;13.70;64.60
3923;DHT22;1976;51.694;6.256;2023-02-28T09:15:59;14.10;62.80
3923;DHT22;1976;51.694;6.256;2023-02-28T09:18:25;14.40;60.90
3923;DHT22;1976;51.694;6.256;2023-02-28T09:20:51;14.80;58.70
3923;DHT22;1976;51.694;6.256;2023-02-28T09:23:17;15.20;57.60
3923;DHT22;1976;51.694;6.256;2023-02-28T09:25:54;15.60;55.60
3923;DHT22;1976;51.694;6.256;2023-02-28T09:28:21;15.90;53.30
3923;DHT22;1976;51.694;6.256;2023-02-28T09:30:52;15.90;54.30
3923;DHT22;1976;51.694;6.256;2023-02-28T09:33:19;16.30;53.70
3923;DHT22;1976;51.694;6.256;2023-02-28T09:35:49;16.50;51.20
3923;DHT22;1976;51.694;6.256;2023-02-28T09:38:15;16.60;49.70
3923;DHT22;1976;51.694;6.256;2023-02-28T09:40:50;16.60;48.30
3923;DHT22;1976;51.694;6.256;2023-02-28T09:43:18;16.90;47.90
3923;DHT22;1976;51.694;6.256;2023-02-28T09:45:55;17.20;47.30
3923;DHT22;1976;51.694;6.256;2023-02-28T09:48:33;17.40;45.10
3923;DHT22;1976;51.694;6.256;2023-02-28T09:51:30;17.50;43.00
3923;DHT22;1976;51.694;6.256;2023-02-28T09:53:58;17.50;41.00
3923;DHT22;1976;51.694;6.256;2023-02-28T09:56:30;17.70;42.50
3923;DHT22;1976;51.694;6.256;2023-02-28T09:59:10;17.30;38.50
3923;DHT22;1976;51.694;6.256;2023-02-28T10:04:59;16.60;38.80
3923;DHT22;1976;51.694;6.256;2023-02-28T10:07:43;16.60;41.00
3923;DHT22;1976;51.694;6.256;2023-02-28T10:10:22;17.00;38.70
3923;DHT22;1976;51.694;6.256;2023-02-28T10:12:52;17.10;39.40
3923;DHT22;1976;51.694;6.256;2023-02-28T10:15:21;17.10;40.00
3923;DHT22;1976;51.694;6.256;2023-02-28T10:17:54;17.70;41.20
3923;DHT22;1976;51.694;6.256;2023-02-28T10:20:23;17.90;37.60
3923;DHT22;1976;51.694;6.256;2023-02-28T10:23:20;17.20;36.80
3923;DHT22;1976;51.694;6.256;2023-02-28T10:25:53;17.20;37.50
3923;DHT22;1976;51.694;6.256;2023-02-28T10:28:19;17.80;39.30
3923;DHT22;1976;51.694;6.256;2023-02-28T10:30:50;18.70;39.70
3923;DHT22;1976;51.694;6.256;2023-02-28T10:33:23;18.70;40.10
3923;DHT22;1976;51.694;6.256;2023-02-28T10:35:49;19.40;36.50
3923;DHT22;1976;51.694;6.256;2023-02-28T10:38:18;19.60;38.30
3923;DHT22;1976;51.694;6.256;2023-02-28T10:40:45;20.00;36.90
3923;DHT22;1976;51.694;6.256;2023-02-28T10:45:40;20.70;35.20
3923;DHT22;1976;51.694;6.256;2023-02-28T10:50:59;20.40;35.60
3923;DHT22;1976;51.694;6.256;2023-02-28T10:53:47;20.70;35.40
3923;DHT22;1976;51.694;6.256;2023-02-28T10:56:22;20.40;34.80
3923;DHT22;1976;51.694;6.256;2023-02-28T10:58:50;19.70;33.80
3923;DHT22;1976;51.694;6.256;2023-02-28T11:01:19;19.10;32.80
3923;DHT22;1976;51.694;6.256;2023-02-28T11:03:46;19.00;33.70
3923;DHT22;1976;51.694;6.256;2023-02-28T11:06:32;19.30;35.30
3923;DHT22;1976;51.694;6.256;2023-02-28T11:09:13;19.30;33.90
3923;DHT22;1976;51.694;6.256;2023-02-28T11:11:46;19.30;34.90
3923;DHT22;1976;51.694;6.256;2023-02-28T11:14:22;20.00;34.40
3923;DHT22;1976;51.694;6.256;2023-02-28T11:16:48;20.50;34.10
3923;DHT22;1976;51.694;6.256;2023-02-28T11:19:25;19.80;33.20
3923;DHT22;1976;51.694;6.256;2023-02-28T11:21:59;19.50;34.40
3923;DHT22;1976;51.694;6.256;2023-02-28T11:24:37;20.10;35.80
3923;DHT22;1976;51.694;6.256;2023-02-28T11:27:24;20.90;35.80
3923;DHT22;1976;51.694;6.256;2023-02-28T11:29:50;21.30;37.80
3923;DHT22;1976;51.694;6.256;2023-02-28T11:32:20;21.70;36.70
3923;DHT22;1976;51.694;6.256;2023-02-28T11:34:47;21.70;35.40
3923;DHT22;1976;51.694;6.256;2023-02-28T11:37:27;21.80;36.60
3923;DHT22;1976;51.694;6.256;2023-02-28T11:39:53;22.50;36.10
3923;DHT22;1976;51.694;6.256;2023-02-28T11:42:45;22.80;35.30
3923;DHT22;1976;51.694;6.256;2023-02-28T11:56:02;24.00;33.00
3923;DHT22;1976;51.694;6.256;2023-02-28T11:58:47;24.30;31.70
3923;DHT22;1976;51.694;6.256;2023-02-28T12:01:44;24.50;33.10
3923;DHT22;1976;51.694;6.256;2023-02-28T12:04:52;24.50;29.80
3923;DHT22;1976;51.694;6.256;2023-02-28T12:07:50;24.30;30.10
3923;DHT22;1976;51.694;6.256;2023-02-28T12:10:20;24.10;30.00
3923;DHT22;1976;51.694;6.256;2023-02-28T12:18:26;23.10;29.50
3923;DHT22;1976;51.694;6.256;2023-02-28T12:23:54;22.60;30.60
3923;DHT22;1976;51.694;6.256;2023-02-28T12:26:32;22.80;30.20
3923;DHT22;1976;51.694;6.256;2023-02-28T12:29:12;22.70;30.30
3923;DHT22;1976;51.694;6.256;2023-02-28T12:31:44;22.50;29.90
3923;DHT22;1976;51.694;6.256;2023-02-28T12:34:19;22.70;30.20
3923;DHT22;1976;51.694;6.256;2023-02-28T12:36:47;22.90;30.90
3923;DHT22;1976;51.694;6.256;2023-02-28T12:39:20;23.30;30.00
3923;DHT22;1976;51.694;6.256;2023-02-28T12:41:56;23.30;30.10
3923;DHT22;1976;51.694;6.256;2023-02-28T12:44:46;23.30;30.00
3923;DHT22;1976;51.694;6.256;2023-02-28T12:47:16;23.20;30.20
3923;DHT22;1976;51.694;6.256;2023-02-28T12:50:06;23.30;29.50
3923;DHT22;1976;51.694;6.256;2023-02-28T12:55:24;23.50;29.30
3923;DHT22;1976;51.694;6.256;2023-02-28T12:58:10;23.60;29.70
3923;DHT22;1976;51.694;6.256;2023-02-28T13:00:54;23.60;29.70
3923;DHT22;1976;51.694;6.256;2023-02-28T13:09:12;24.00;29.10
3923;DHT22;1976;51.694;6.256;2023-02-28T13:11:45;23.90;29.30
3923;DHT22;1976;51.694;6.256;2023-02-28T13:19:34;23.90;29.20
3923;DHT22;1976;51.694;6.256;2023-02-28T13:22:01;23.90;29.70
3923;DHT22;1976;51.694;6.256;2023-02-28T13:24:43;24.10;30.00
3923;DHT22;1976;51.694;6.256;2023-02-28T13:27:17;24.20;30.00
3923;DHT22;1976;51.694;6.256;2023-02-28T13:29:50;24.50;29.90
3923;DHT22;1976;51.694;6.256;2023-02-28T13:58:16;22.80;29.70
3923;DHT22;1976;51.694;6.256;2023-02-28T14:09:03;22.30;29.80
3923;DHT22;1976;51.694;6.256;2023-02-28T14:11:38;21.90;29.20
3923;DHT22;1976;51.694;6.256;2023-02-28T14:14:05;21.80;30.40
3923;DHT22;1976;51.694;6.256;2023-02-28T14:16:44;22.20;30.40
3923;DHT22;1976;51.694;6.256;2023-02-28T14:21:39;22.60;29.60
3923;DHT22;1976;51.694;6.256;2023-02-28T14:29:47;22.40;28.80
3923;DHT22;1976;51.694;6.256;2023-02-28T14:37:52;21.80;30.40
3923;DHT22;1976;51.694;6.256;2023-02-28T14:40:38;21.70;30.40
3923;DHT22;1976;51.694;6.256;2023-02-28T14:43:06;21.50;29.90
3923;DHT22;1976;51.694;6.256;2023-02-28T14:45:44;21.30;29.90
3923;DHT22;1976;51.694;6.256;2023-02-28T14:48:15;21.30;30.20
3923;DHT22;1976;51.694;6.256;2023-02-28T14:50:51;21.10;30.50
3923;DHT22;1976;51.694;6.256;2023-02-28T14:53:20;21.10;31.90
3923;DHT22;1976;51.694;6.256;2023-02-28T14:55:48;21.10;30.30
3923;DHT22;1976;51.694;6.256;2023-02-28T14:58:34;21.10;30.20
3923;DHT22;1976;51.694;6.256;2023-02-28T15:01:02;21.10;30.40
3923;DHT22;1976;51.694;6.256;2023-02-28T15:03:36;21.10;30.00
3923;DHT22;1976;51.694;6.256;2023-02-28T15:06:16;21.00;30.00
3923;DHT22;1976;51.694;6.256;2023-02-28T15:08:46;20.60;30.00
3923;DHT22;1976;51.694;6.256;2023-02-28T15:11:16;20.30;29.90
3923;DHT22;1976;51.694;6.256;2023-02-28T15:13:46;20.00;30.20
3923;DHT22;1976;51.694;6.256;2023-02-28T15:21:27;18.80;31.00
3923;DHT22;1976;51.694;6.256;2023-02-28T15:26:54;18.40;31.70
3923;DHT22;1976;51.694;6.256;2023-02-28T15:29:25;18.40;32.10
3923;DHT22;1976;51.694;6.256;2023-02-28T15:32:03;18.40;32.00
3923;DHT22;1976;51.694;6.256;2023-02-28T15:34:41;18.30;32.60
3923;DHT22;1976;51.694;6.256;2023-02-28T15:39:53;18.00;32.00
3923;DHT22;1976;51.694;6.256;2023-02-28T15:42:21;17.90;32.40
3923;DHT22;1976;51.694;6.256;2023-02-28T15:44:47;17.80;33.20
3923;DHT22;1976;51.694;6.256;2023-02-28T15:47:29;17.50;33.20
3923;DHT22;1976;51.694;6.256;2023-02-28T15:52:33;17.00;33.30
3923;DHT22;1976;51.694;6.256;2023-02-28T15:55:26;16.80;33.90
3923;DHT22;1976;51.694;6.256;2023-02-28T15:58:01;16.60;34.60
3923;DHT22;1976;51.694;6.256;2023-02-28T16:00:28;16.50;34.20
3923;DHT22;1976;51.694;6.256;2023-02-28T16:02:54;16.30;34.80
3923;DHT22;1976;51.694;6.256;2023-02-28T16:05:30;16.20;34.80
3923;DHT22;1976;51.694;6.256;2023-02-28T16:08:10;15.80;34.40
3923;DHT22;1976;51.694;6.256;2023-02-28T16:10:36;15.70;36.00
3923;DHT22;1976;51.694;6.256;2023-02-28T16:13:02;15.60;36.30
3923;DHT22;1976;51.694;6.256;2023-02-28T16:15:30;15.40;35.70
3923;DHT22;1976;51.694;6.256;2023-02-28T16:17:58;15.30;36.40
3923;DHT22;1976;51.694;6.256;2023-02-28T16:20:29;15.10;37.10
3923;DHT22;1976;51.694;6.256;2023-02-28T16:25:25;14.70;37.60
3923;DHT22;1976;51.694;6.256;2023-02-28T16:27:53;14.50;37.40
3923;DHT22;1976;51.694;6.256;2023-02-28T16:30:23;14.30;37.10
3923;DHT22;1976;51.694;6.256;2023-02-28T16:32:50;14.20;37.80
3923;DHT22;1976;51.694;6.256;2023-02-28T16:35:18;14.00;37.70
3923;DHT22;1976;51.694;6.256;2023-02-28T16:37:44;13.90;39.40
3923;DHT22;1976;51.694;6.256;2023-02-28T16:40:18;13.80;39.50
3923;DHT22;1976;51.694;6.256;2023-02-28T16:42:47;13.60;39.50
3923;DHT22;1976;51.694;6.256;2023-02-28T16:45:31;13.40;39.80
3923;DHT22;1976;51.694;6.256;2023-02-28T16:47:57;13.00;39.60
3923;DHT22;1976;51.694;6.256;2023-02-28T16:50:28;12.70;41.50
3923;DHT22;1976;51.694;6.256;2023-02-28T16:52:59;12.50;41.40
3923;DHT22;1976;51.694;6.256;2023-02-28T16:55:26;12.20;42.70
3923;DHT22;1976;51.694;6.256;2023-02-28T16:57:54;12.00;43.30
3923;DHT22;1976;51.694;6.256;2023-02-28T17:00:21;11.70;44.20
3923;DHT22;1976;51.694;6.256;2023-02-28T17:02:47;11.50;44.20
3923;DHT22;1976;51.694;6.256;2023-02-28T17:05:13;11.20;45.50
3923;DHT22;1976;51.694;6.256;2023-02-28T17:07:41;10.90;45.20
3923;DHT22;1976;51.694;6.256;2023-02-28T17:10:26;10.50;45.20
3923;DHT22;1976;51.694;6.256;2023-02-28T17:12:52;10.20;45.20
3923;DHT22;1976;51.694;6.256;2023-02-28T17:15:19;10.00;47.00
3923;DHT22;1976;51.694;6.256;2023-02-28T17:17:47;9.60;48.40
3923;DHT22;1976;51.694;6.256;2023-02-28T17:20:20;9.30;48.10
3923;DHT22;1976;51.694;6.256;2023-02-28T17:22:50;9.00;49.00
3923;DHT22;1976;51.694;6.256;2023-02-28T17:32:41;8.20;50.60
3923;DHT22;1976;51.694;6.256;2023-02-28T17:35:07;8.00;50.90
3923;DHT22;1976;51.694;6.256;2023-02-28T17:37:33;7.80;51.30
3923;DHT22;1976;51.694;6.256;2023-02-28T17:39:59;7.70;51.80
3923;DHT22;1976;51.694;6.256;2023-02-28T17:42:24;7.50;52.40
3923;DHT22;1976;51.694;6.256;2023-02-28T17:44:50;7.30;53.10
3923;DHT22;1976;51.694;6.256;2023-02-28T17:47:15;7.20;55.30
3923;DHT22;1976;51.694;6.256;2023-02-28T17:49:41;7.10;55.70
3923;DHT22;1976;51.694;6.256;2023-02-28T17:52:07;7.00;55.30
3923;DHT22;1976;51.694;6.256;2023-02-28T17:54:33;6.80;55.10
3923;DHT22;1976;51.694;6.256;2023-02-28T17:56:59;6.80;55.40
3923;DHT22;1976;51.694;6.256;2023-02-28T17:59:25;6.80;55.70
3923;DHT22;1976;51.694;6.256;2023-02-28T18:02:01;6.70;55.60
3923;DHT22;1976;51.694;6.256;2023-02-28T18:04:26;6.60;55.80
3923;DHT22;1976;51.694;6.256;2023-02-28T18:06:53;6.50;57.40
3923;DHT22;1976;51.694;6.256;2023-02-28T18:09:22;6.50;58.00
3923;DHT22;1976;51.694;6.256;2023-02-28T18:11:49;6.40;58.30
3923;DHT22;1976;51.694;6.256;2023-02-28T18:14:15;6.30;58.60
3923;DHT22;1976;51.694;6.256;2023-02-28T18:16:42;6.20;58.30
3923;DHT22;1976;51.694;6.256;2023-02-28T18:19:08;6.20;58.30
3923;DHT22;1976;51.694;6.256;2023-02-28T18:21:40;6.10;58.90
3923;DHT22;1976;51.694;6.256;2023-02-28T18:24:06;6.00;60.10
3923;DHT22;1976;51.694;6.256;2023-02-28T18:26:32;5.90;62.50
3923;DHT22;1976;51.694;6.256;2023-02-28T18:28:57;5.80;63.60
3923;DHT22;1976;51.694;6.256;2023-02-28T18:31:23;5.60;63.30
3923;DHT22;1976;51.694;6.256;2023-02-28T18:36:15;5.40;63.50
3923;DHT22;1976;51.694;6.256;2023-02-28T18:38:41;5.40;63.70
3923;DHT22;1976;51.694;6.256;2023-02-28T18:41:08;5.30;65.10
3923;DHT22;1976;51.694;6.256;2023-02-28T18:43:35;5.20;65.40
3923;DHT22;1976;51.694;6.256;2023-02-28T18:46:14;5.10;66.10
3923;DHT22;1976;51.694;6.256;2023-02-28T18:51:21;4.90;67.20
3923;DHT22;1976;51.694;6.256;2023-02-28T18:53:47;4.90;68.20
3923;DHT22;1976;51.694;6.256;2023-02-28T18:56:15;4.90;71.40
3923;DHT22;1976;51.694;6.256;2023-02-28T18:58:42;4.90;72.40
3923;DHT22;1976;51.694;6.256;2023-02-28T19:03:52;4.70;72.50
3923;DHT22;1976;51.694;6.256;2023-02-28T19:06:18;4.70;75.40